createdAt,value
2022-08-05T00:00:00.706Z,99738.44
2022-08-05T00:02:29.263Z,99743.50
2022-08-05T00:04:58.113Z,99757.66
2022-08-05T00:07:59.196Z,99768.19
2022-08-05T00:10:14.931Z,99805.38
2022-08-05T00:12:55.652Z,99826.84
2022-08-05T00:15:55.249Z,99838.03
2022-08-05T00:18:21.387Z,99857.84
2022-08-05T00:20:50.383Z,99862.03
2022-08-05T00:23:44.741Z,99866.94
2022-08-05T00:26:08.658Z,99849.84
2022-08-05T00:28:39.061Z,99846.81
2022-08-05T00:31:08.835Z,99852.66
2022-08-05T00:34:54.815Z,99866.38
2022-08-05T00:37:10.848Z,99876.75
2022-08-05T00:39:16.323Z,99884.22
2022-08-05T00:41:55.345Z,99883.25
2022-08-05T00:44:30.802Z,99903.28
2022-08-05T00:47:01.970Z,99892.75
2022-08-05T00:49:44.439Z,99889.34
2022-08-05T00:52:28.183Z,99868.91
2022-08-05T00:54:57.696Z,99880.06
2022-08-05T00:57:38.381Z,99896.66
2022-08-05T01:00:17.175Z,99873.84
2022-08-05T01:02:50.155Z,99869.09
2022-08-05T01:05:18.715Z,99860.06
2022-08-05T01:08:40.890Z,99858.22
2022-08-05T01:10:51.569Z,99842.56
2022-08-05T01:13:57.952Z,99817.06
2022-08-05T01:16:31.365Z,99769.41
2022-08-05T01:19:10.624Z,99754.94
2022-08-05T01:22:15.506Z,99763.56
2022-08-05T01:25:56.474Z,99755.38
2022-08-05T01:28:39.456Z,99785.38
2022-08-05T01:31:14.770Z,99776.94
2022-08-05T01:33:53.497Z,99772.50
2022-08-05T01:36:27.967Z,99761.56
2022-08-05T01:39:00.231Z,99740.34
2022-08-05T01:41:35.081Z,99748.16
2022-08-05T01:44:09.802Z,99774.13
2022-08-05T01:46:42.828Z,99760.22
2022-08-05T01:49:24.155Z,99759.06
2022-08-05T01:51:58.871Z,99749.75
2022-08-05T01:54:34.553Z,99732.16
2022-08-05T01:58:13.083Z,99734.59
2022-08-05T02:00:11.885Z,99748.13
2022-08-05T02:02:51.139Z,99756.38
2022-08-05T02:05:23.472Z,99751.06
2022-08-05T02:07:59.996Z,99736.22
2022-08-05T02:10:35.999Z,99723.28
2022-08-05T02:13:16.170Z,99714.84
2022-08-05T02:15:51.857Z,99686.97
2022-08-05T02:18:30.791Z,99684.69
2022-08-05T02:21:13.249Z,99687.84
2022-08-05T02:23:48.515Z,99676.28
2022-08-05T02:26:23.317Z,99670.91
2022-08-05T02:28:58.186Z,99683.94
2022-08-05T02:31:34.664Z,99698.53
2022-08-05T02:34:09.386Z,99723.16
2022-08-05T02:36:44.076Z,99738.19
2022-08-05T02:39:13.803Z,99779.00
2022-08-05T02:41:57.777Z,99811.88
2022-08-05T02:44:31.640Z,99828.16
2022-08-05T02:47:02.609Z,99803.28
2022-08-05T02:49:40.325Z,99796.28
2022-08-05T02:52:13.666Z,99833.72
2022-08-05T02:55:05.056Z,99851.31
2022-08-05T02:58:20.411Z,99840.38
2022-08-05T03:00:25.471Z,99812.81
2022-08-05T03:02:58.610Z,99834.22
2022-08-05T03:06:56.227Z,99839.34
2022-08-05T03:08:16.710Z,99850.41
2022-08-05T03:11:53.025Z,99855.72
2022-08-05T03:13:51.964Z,99853.06
2022-08-05T03:16:31.544Z,99836.41
2022-08-05T03:19:04.263Z,99837.25
2022-08-05T03:21:48.756Z,99850.84
2022-08-05T03:24:28.648Z,99841.94
2022-08-05T03:26:58.830Z,99845.47
2022-08-05T03:29:45.761Z,99850.19
2022-08-05T03:32:17.304Z,99822.88
2022-08-05T03:34:50.959Z,99802.78
2022-08-05T03:37:22.606Z,99806.38
2022-08-05T03:40:01.120Z,99805.75
2022-08-05T03:42:32.195Z,99823.31
2022-08-05T03:45:11.805Z,99839.03
2022-08-05T03:47:50.175Z,99888.44
2022-08-05T03:50:21.373Z,99917.38
2022-08-05T03:55:06.709Z,99925.69
2022-08-05T03:56:10.395Z,99969.75
2022-08-05T03:58:48.511Z,99962.78
2022-08-05T04:01:22.478Z,99961.31
2022-08-05T04:04:08.899Z,99963.41
2022-08-05T04:06:47.603Z,99958.88
2022-08-05T04:09:26.274Z,99956.44
2022-08-05T04:11:56.989Z,99960.34
2022-08-05T04:14:29.789Z,99951.13
2022-08-05T04:17:02.140Z,99943.94
2022-08-05T04:19:31.841Z,99940.66
2022-08-05T04:22:09.301Z,99910.97
2022-08-05T04:24:44.425Z,99912.97
2022-08-05T04:27:15.316Z,99911.28
2022-08-05T04:29:44.006Z,99905.50
2022-08-05T04:32:13.663Z,99903.75
2022-08-05T04:34:48.357Z,99904.25
2022-08-05T04:37:18.197Z,99899.16
2022-08-05T04:39:46.742Z,99894.78
2022-08-05T04:42:21.361Z,99890.28
2022-08-05T04:44:53.973Z,99898.25
2022-08-05T04:47:22.582Z,99892.94
2022-08-05T04:50:06.524Z,99893.91
2022-08-05T04:52:40.946Z,99892.09
2022-08-05T04:55:14.977Z,99889.66
2022-08-05T04:57:47.537Z,99910.66
2022-08-05T05:00:17.654Z,99908.00
2022-08-05T05:02:46.251Z,99925.47
2022-08-05T05:05:16.699Z,99935.22
2022-08-05T05:08:01.568Z,99928.13
2022-08-05T05:10:31.084Z,99933.41
2022-08-05T05:13:03.767Z,99929.91
2022-08-05T05:15:56.974Z,99948.34
2022-08-05T05:18:31.158Z,99961.50
2022-08-05T05:21:04.248Z,99976.16
2022-08-05T05:23:39.057Z,99990.56
2022-08-05T05:26:28.863Z,99998.50
2022-08-05T05:29:02.738Z,99994.78
2022-08-05T05:31:46.228Z,99991.72
2022-08-05T05:34:15.495Z,99967.00
2022-08-05T05:36:47.068Z,99981.31
2022-08-05T05:39:19.125Z,99993.16
2022-08-05T05:41:54.493Z,99993.16
2022-08-05T05:44:37.766Z,99994.53
2022-08-05T05:47:23.564Z,99962.56
2022-08-05T05:50:01.774Z,99974.19
2022-08-05T05:52:37.935Z,99963.25
2022-08-05T05:55:13.669Z,99971.66
2022-08-05T05:57:52.927Z,99976.16
2022-08-05T06:00:31.465Z,99977.97
2022-08-05T06:03:03.435Z,99982.16
2022-08-05T06:05:54.047Z,100004.78
2022-08-05T06:08:32.778Z,100014.72
2022-08-05T06:11:02.805Z,99988.25
2022-08-05T06:13:40.821Z,99960.47
2022-08-05T06:16:29.589Z,99962.00
2022-08-05T06:19:02.087Z,99958.22
2022-08-05T06:21:36.159Z,99971.47
2022-08-05T06:24:11.239Z,99966.00
2022-08-05T06:26:51.351Z,99953.69
2022-08-05T06:29:45.464Z,99926.78
2022-08-05T06:32:26.165Z,99942.47
2022-08-05T06:34:59.336Z,99934.25
2022-08-05T06:37:56.546Z,99935.25
2022-08-05T06:40:18.503Z,99929.38
2022-08-05T06:42:52.810Z,99925.25
2022-08-05T06:46:02.950Z,99925.34
2022-08-05T06:48:50.472Z,99922.63
2022-08-05T06:51:00.026Z,99944.13
2022-08-05T06:53:29.378Z,99941.28
2022-08-05T06:55:59.284Z,99908.88
2022-08-05T06:58:36.108Z,99907.50
2022-08-05T07:01:06.910Z,99885.13
2022-08-05T07:03:36.359Z,99873.59
2022-08-05T07:06:14.274Z,99896.53
2022-08-05T07:08:47.328Z,99923.47
2022-08-05T07:11:16.882Z,99948.28
2022-08-05T07:14:20.010Z,99981.38
2022-08-05T07:17:59.113Z,100004.34
2022-08-05T07:22:30.515Z,100027.31
2022-08-05T07:25:21.697Z,100042.44
2022-08-05T07:27:58.828Z,100045.59
2022-08-05T07:30:34.521Z,100050.38
2022-08-05T07:33:10.646Z,100057.41
2022-08-05T07:36:03.459Z,100057.78
2022-08-05T07:38:43.178Z,100057.44
2022-08-05T07:42:07.991Z,100052.00
2022-08-05T07:44:18.431Z,100040.94
2022-08-05T07:46:50.515Z,100027.56
2022-08-05T07:49:20.566Z,100040.44
2022-08-05T07:51:54.243Z,100040.28
2022-08-05T07:54:30.885Z,100042.91
2022-08-05T07:57:14.603Z,100030.97
2022-08-05T07:59:46.973Z,100040.50
2022-08-05T08:02:18.962Z,100037.13
2022-08-05T08:04:48.686Z,100042.59
2022-08-05T08:07:21.978Z,100049.16
2022-08-05T08:09:52.586Z,100061.19
2022-08-05T08:12:37.172Z,100063.06
2022-08-05T08:15:15.141Z,100060.56
2022-08-05T08:17:50.769Z,100045.16
2022-08-05T08:21:00.515Z,100048.00
2022-08-05T08:24:00.142Z,100048.94
2022-08-05T08:26:02.693Z,100042.59
2022-08-05T08:28:36.410Z,100040.22
2022-08-05T08:31:06.148Z,100040.63
2022-08-05T08:33:38.346Z,100030.13
2022-08-05T08:38:57.596Z,100031.22
2022-08-05T08:41:52.562Z,100034.34
2022-08-05T08:45:23.125Z,100036.66
2022-08-05T08:47:47.370Z,100029.34
2022-08-05T08:50:06.142Z,100027.78
2022-08-05T08:52:55.876Z,100034.31
2022-08-05T08:56:03.003Z,100043.63
2022-08-05T08:58:13.557Z,100056.59
2022-08-05T09:00:44.368Z,100044.09
2022-08-05T09:03:16.261Z,100032.50
2022-08-05T09:06:08.689Z,100038.44
2022-08-05T09:08:40.402Z,100046.00
2022-08-05T09:11:12.361Z,100043.44
2022-08-05T09:14:09.233Z,100042.44
2022-08-05T09:16:32.448Z,100038.25
2022-08-05T09:19:00.883Z,100028.47
2022-08-05T09:22:22.941Z,100020.66
2022-08-05T09:24:25.059Z,100020.97
2022-08-05T09:26:59.489Z,100019.94
2022-08-05T09:29:47.664Z,100021.78
2022-08-05T09:32:40.772Z,100022.94
2022-08-05T09:35:26.673Z,100006.31
2022-08-05T09:38:17.471Z,99991.78
2022-08-05T09:40:52.393Z,99976.19
2022-08-05T09:43:40.178Z,99988.19
2022-08-05T09:46:28.455Z,100025.97
2022-08-05T09:49:06.971Z,100022.94
2022-08-05T09:51:49.380Z,100016.56
2022-08-05T09:54:32.086Z,100019.56
2022-08-05T09:57:01.348Z,100027.56
2022-08-05T09:59:37.066Z,100028.28
2022-08-05T10:02:06.539Z,100026.13
2022-08-05T10:04:41.067Z,100011.38
2022-08-05T10:07:21.045Z,100015.47
2022-08-05T10:10:15.323Z,100011.63
2022-08-05T10:12:51.356Z,100015.47
2022-08-05T10:15:25.884Z,100025.41
2022-08-05T10:18:13.880Z,100020.69
2022-08-05T10:20:47.700Z,100014.38
2022-08-05T10:23:34.485Z,100012.81
2022-08-05T10:26:14.575Z,100023.69
2022-08-05T10:28:46.359Z,100027.47
2022-08-05T10:32:52.973Z,100030.69
2022-08-05T10:34:07.026Z,100027.72
2022-08-05T10:36:37.913Z,100022.84
2022-08-05T10:39:15.055Z,100033.41
2022-08-05T10:42:01.303Z,100044.53
2022-08-05T10:44:32.665Z,100034.25
2022-08-05T10:47:27.089Z,100041.88
2022-08-05T10:50:32.590Z,100039.16
2022-08-05T10:52:59.818Z,100043.75
2022-08-05T10:55:30.420Z,100043.44
2022-08-05T10:58:15.696Z,100048.19
2022-08-05T11:00:55.314Z,100046.63
2022-08-05T11:03:31.349Z,100056.75
2022-08-05T11:06:15.837Z,100071.34
2022-08-05T11:09:24.478Z,100060.97
2022-08-05T11:12:01.107Z,100048.56
2022-08-05T11:15:11.714Z,100055.34
2022-08-05T11:17:59.385Z,100062.72
2022-08-05T11:20:44.328Z,100073.97
2022-08-05T11:24:02.895Z,100075.97
2022-08-05T11:26:28.360Z,100076.34
2022-08-05T11:29:02.455Z,100082.94
2022-08-05T11:31:57.942Z,100081.97
2022-08-05T11:34:51.103Z,100084.16
2022-08-05T11:38:30.747Z,100085.50
2022-08-05T11:41:35.426Z,100088.94
2022-08-05T11:44:06.535Z,100093.44
2022-08-05T11:47:09.296Z,100088.94
2022-08-05T11:49:28.741Z,100068.69
2022-08-05T11:51:57.911Z,100074.59
2022-08-05T11:54:33.587Z,100075.41
2022-08-05T11:57:08.678Z,100080.09
2022-08-05T11:59:54.202Z,100078.09
2022-08-05T12:02:31.409Z,100071.22
2022-08-05T12:05:06.850Z,100070.13
2022-08-05T12:08:08.963Z,100077.81
2022-08-05T12:10:38.569Z,100084.34
2022-08-05T12:13:27.660Z,100086.91
2022-08-05T12:16:14.458Z,100085.44
2022-08-05T12:18:52.338Z,100085.59
2022-08-05T12:21:26.643Z,100077.16
2022-08-05T12:24:00.015Z,100094.19
2022-08-05T12:26:37.526Z,100108.09
2022-08-05T12:29:09.795Z,100099.69
2022-08-05T12:31:53.549Z,100094.25
2022-08-05T12:34:26.796Z,100097.72
2022-08-05T12:36:59.470Z,100099.47
2022-08-05T12:39:37.055Z,100113.59
2022-08-05T12:42:14.939Z,100111.59
2022-08-05T12:44:46.005Z,100117.56
2022-08-05T12:47:28.844Z,100111.19
2022-08-05T12:50:03.284Z,100117.25
2022-08-05T12:52:38.673Z,100125.09
2022-08-05T12:55:23.495Z,100129.47
2022-08-05T12:58:48.313Z,100133.03
2022-08-05T13:01:59.858Z,100142.00
2022-08-05T13:03:38.969Z,100143.97
2022-08-05T13:06:17.186Z,100148.72
2022-08-05T13:08:52.354Z,100149.88
2022-08-05T13:11:46.968Z,100141.75
2022-08-05T13:14:24.647Z,100146.88
2022-08-05T13:16:57.034Z,100154.94
2022-08-05T13:19:52.166Z,100152.69
2022-08-05T13:22:29.711Z,100154.72
2022-08-05T13:25:05.522Z,100160.38
2022-08-05T13:27:38.153Z,100166.09
2022-08-05T13:30:34.063Z,100168.31
2022-08-05T13:33:00.977Z,100163.00
2022-08-05T13:35:43.204Z,100171.44
2022-08-05T13:38:27.961Z,100179.13
2022-08-05T13:41:00.669Z,100193.44
2022-08-05T13:43:45.034Z,100194.72
2022-08-05T13:46:35.790Z,100192.22
2022-08-05T13:49:10.052Z,100198.38
2022-08-05T13:51:46.110Z,100194.16
2022-08-05T13:54:20.979Z,100186.53
2022-08-05T13:56:55.292Z,100190.41
2022-08-05T13:59:26.998Z,100179.63
2022-08-05T14:02:00.076Z,100165.00
2022-08-05T14:04:50.021Z,100155.06
2022-08-05T14:07:25.862Z,100141.63
2022-08-05T14:10:13.386Z,100159.47
2022-08-05T14:12:48.752Z,100174.78
2022-08-05T14:16:07.974Z,100188.88
2022-08-05T14:18:14.796Z,100188.63
2022-08-05T14:20:46.868Z,100198.22
2022-08-05T14:23:25.291Z,100201.63
2022-08-05T14:25:59.017Z,100212.25
2022-08-05T14:28:30.030Z,100212.34
2022-08-05T14:30:59.440Z,100220.03
2022-08-05T14:33:32.502Z,100214.69
2022-08-05T14:36:21.363Z,100196.59
2022-08-05T14:38:51.101Z,100202.72
2022-08-05T14:41:21.261Z,100203.47
2022-08-05T14:44:02.417Z,100206.13
2022-08-05T14:46:37.994Z,100200.31
2022-08-05T14:49:08.099Z,100208.09
2022-08-05T14:51:38.168Z,100214.56
2022-08-05T14:54:28.268Z,100207.19
2022-08-05T14:56:56.548Z,100208.53
2022-08-05T14:59:29.342Z,100196.13
2022-08-05T15:02:03.980Z,100206.13
2022-08-05T15:04:44.850Z,100215.22
2022-08-05T15:08:09.068Z,100222.22
2022-08-05T15:10:09.587Z,100229.25
2022-08-05T15:12:58.044Z,100228.06
2022-08-05T15:15:53.980Z,100229.56
2022-08-05T15:18:17.290Z,100234.28
2022-08-05T15:20:46.102Z,100238.94
2022-08-05T15:23:15.696Z,100238.94
2022-08-05T15:25:51.996Z,100245.13
2022-08-05T15:28:27.138Z,100253.47
2022-08-05T15:30:57.131Z,100256.13
2022-08-05T15:34:04.084Z,100265.72
2022-08-05T15:36:17.301Z,100257.66
2022-08-05T15:41:04.708Z,100272.09
2022-08-05T15:41:55.954Z,100281.69
2022-08-05T15:44:26.149Z,100280.19
2022-08-05T15:46:56.133Z,100282.97
2022-08-05T15:49:40.727Z,100292.28
2022-08-05T15:52:51.812Z,100302.06
2022-08-05T15:55:03.718Z,100310.53
2022-08-05T15:57:34.634Z,100308.09
2022-08-05T16:00:05.160Z,100313.06
2022-08-05T16:02:33.968Z,100311.16
2022-08-05T16:05:05.304Z,100301.81
2022-08-05T16:07:38.029Z,100303.09
2022-08-05T16:10:14.836Z,100312.22
2022-08-05T16:12:43.228Z,100310.00
2022-08-05T16:15:18.381Z,100308.69
2022-08-05T16:17:57.661Z,100308.50
2022-08-05T16:20:28.221Z,100314.72
2022-08-05T16:22:57.500Z,100313.88
2022-08-05T16:25:32.249Z,100314.50
2022-08-05T16:28:05.922Z,100322.03
2022-08-05T16:30:36.074Z,100316.31
2022-08-05T16:33:05.164Z,100325.81
2022-08-05T16:35:42.058Z,100323.56
2022-08-05T16:38:18.713Z,100325.81
2022-08-05T16:40:59.643Z,100333.34
2022-08-05T16:43:30.706Z,100334.72
2022-08-05T16:46:03.702Z,100334.00
2022-08-05T16:48:39.159Z,100349.75
2022-08-05T16:51:10.741Z,100350.53
2022-08-05T16:54:02.830Z,100346.91
2022-08-05T16:56:33.751Z,100351.94
2022-08-05T16:59:08.140Z,100357.13
2022-08-05T17:01:53.816Z,100348.63
2022-08-05T17:04:26.970Z,100357.69
2022-08-05T17:07:01.281Z,100360.25
2022-08-05T17:09:57.459Z,100348.91
2022-08-05T17:12:22.673Z,100349.38
2022-08-05T17:15:09.434Z,100361.28
2022-08-05T17:17:42.482Z,100365.44
2022-08-05T17:20:14.900Z,100357.09
2022-08-05T17:22:46.270Z,100362.25
2022-08-05T17:25:39.421Z,100363.28
2022-08-05T17:28:10.048Z,100365.94
2022-08-05T17:30:50.734Z,100376.16
2022-08-05T17:33:21.258Z,100379.16
2022-08-05T17:36:07.300Z,100378.09
2022-08-05T17:38:40.161Z,100380.94
2022-08-05T17:41:11.727Z,100394.75
2022-08-05T17:43:57.731Z,100387.38
2022-08-05T17:46:26.312Z,100390.03
2022-08-05T17:48:55.311Z,100389.06
2022-08-05T17:51:23.979Z,100382.81
2022-08-05T17:53:56.533Z,100395.22
2022-08-05T17:56:28.490Z,100400.22
2022-08-05T17:58:57.172Z,100393.59
2022-08-05T18:01:25.653Z,100401.34
2022-08-05T18:04:03.850Z,100415.28
2022-08-05T18:06:33.325Z,100411.19
2022-08-05T18:09:03.665Z,100411.19
2022-08-05T18:11:33.567Z,100408.09
2022-08-05T18:14:06.752Z,100417.75
2022-08-05T18:16:43.730Z,100410.56
2022-08-05T18:19:22.860Z,100423.03
2022-08-05T18:22:08.448Z,100432.16
2022-08-05T18:24:41.359Z,100442.44
2022-08-05T18:27:12.373Z,100436.19
2022-08-05T18:29:41.628Z,100438.47
2022-08-05T18:32:12.992Z,100442.94
2022-08-05T18:34:57.049Z,100450.06
2022-08-05T18:37:34.151Z,100456.19
2022-08-05T18:40:34.545Z,100453.97
2022-08-05T18:43:00.432Z,100461.81
2022-08-05T18:45:40.993Z,100466.25
2022-08-05T18:48:11.155Z,100462.50
2022-08-05T18:50:57.399Z,100480.22
2022-08-05T18:53:34.753Z,100482.31
2022-08-05T18:56:14.264Z,100485.53
2022-08-05T18:58:43.001Z,100484.75
2022-08-05T19:01:18.124Z,100494.66
2022-08-05T19:03:55.090Z,100497.28
2022-08-05T19:06:37.153Z,100501.59
2022-08-05T19:09:12.769Z,100509.44
2022-08-05T19:11:59.765Z,100508.91
2022-08-05T19:14:52.440Z,100506.09
2022-08-05T19:17:19.393Z,100519.22
2022-08-05T19:19:48.803Z,100519.78
2022-08-05T19:22:17.718Z,100525.81
2022-08-05T19:24:54.392Z,100528.03
2022-08-05T19:27:30.491Z,100535.00
2022-08-05T19:29:59.390Z,100536.88
2022-08-05T19:32:28.268Z,100553.88
2022-08-05T19:34:57.912Z,100555.66
2022-08-05T19:37:29.956Z,100554.25
2022-08-05T19:40:16.241Z,100572.75
2022-08-05T19:43:00.801Z,100577.25
2022-08-05T19:45:36.771Z,100582.44
2022-08-05T19:48:06.765Z,100587.66
2022-08-05T19:50:43.545Z,100583.44
2022-08-05T19:53:12.049Z,100598.69
2022-08-05T19:56:14.238Z,100597.13
2022-08-05T19:58:31.112Z,100599.91
2022-08-05T20:01:11.641Z,100599.13
2022-08-05T20:03:40.983Z,100594.41
2022-08-05T20:06:15.441Z,100596.72
2022-08-05T20:08:47.451Z,100603.47
2022-08-05T20:11:17.930Z,100611.34
2022-08-05T20:13:58.066Z,100613.25
2022-08-05T20:16:38.166Z,100611.75
2022-08-05T20:19:06.872Z,100615.28
2022-08-05T20:21:37.847Z,100622.25
2022-08-05T20:24:08.222Z,100630.50
2022-08-05T20:26:40.069Z,100632.25
2022-08-05T20:29:27.367Z,100644.06
2022-08-05T20:31:58.285Z,100639.22
2022-08-05T20:34:28.298Z,100652.75
2022-08-05T20:36:56.732Z,100651.31
2022-08-05T20:39:25.776Z,100652.06
2022-08-05T20:42:04.561Z,100653.91
2022-08-05T20:44:37.910Z,100655.75
2022-08-05T20:47:08.181Z,100663.75
2022-08-05T20:49:39.859Z,100660.25
2022-08-05T20:52:10.618Z,100673.94
2022-08-05T20:54:59.680Z,100669.09
2022-08-05T20:57:44.135Z,100677.94
2022-08-05T21:00:34.996Z,100676.44
2022-08-05T21:03:07.975Z,100675.88
2022-08-05T21:05:54.250Z,100670.19
2022-08-05T21:08:26.763Z,100671.13
2022-08-05T21:11:09.118Z,100674.59
2022-08-05T21:13:56.252Z,100675.72
2022-08-05T21:16:29.807Z,100681.50
2022-08-05T21:19:01.077Z,100678.78
2022-08-05T21:21:44.248Z,100688.47
2022-08-05T21:24:19.986Z,100691.84
2022-08-05T21:26:53.252Z,100685.56
2022-08-05T21:29:26.608Z,100695.81
2022-08-05T21:32:02.994Z,100690.25
2022-08-05T21:34:32.970Z,100693.47
2022-08-05T21:37:01.926Z,100696.91
2022-08-05T21:39:34.470Z,100696.09
2022-08-05T21:42:03.505Z,100691.53
2022-08-05T21:44:32.310Z,100679.94
2022-08-05T21:47:02.781Z,100686.34
2022-08-05T21:49:58.524Z,100688.66
2022-08-05T21:52:27.100Z,100684.00
2022-08-05T21:55:07.090Z,100688.78
2022-08-05T21:57:36.019Z,100681.28
2022-08-05T22:00:10.901Z,100689.66
2022-08-05T22:02:44.848Z,100694.31
2022-08-05T22:05:14.802Z,100693.66
2022-08-05T22:07:58.494Z,100710.53
2022-08-05T22:10:30.885Z,100721.81
2022-08-05T22:14:05.282Z,100720.78
2022-08-05T22:16:00.444Z,100717.00
2022-08-05T22:18:32.100Z,100723.06
2022-08-05T22:21:00.674Z,100724.91
2022-08-05T22:24:01.921Z,100719.06
2022-08-05T22:26:49.425Z,100719.97
2022-08-05T22:29:26.109Z,100723.09
2022-08-05T22:31:59.506Z,100729.22
2022-08-05T22:34:33.305Z,100742.03
2022-08-05T22:37:03.806Z,100741.47
2022-08-05T22:39:34.704Z,100743.13
2022-08-05T22:42:09.286Z,100742.59
2022-08-05T22:44:40.616Z,100740.44
2022-08-05T22:47:11.273Z,100746.41
2022-08-05T22:50:19.893Z,100744.44
2022-08-05T22:52:34.339Z,100745.88
2022-08-05T22:55:04.175Z,100754.53
2022-08-05T22:57:34.133Z,100755.31
2022-08-05T23:00:07.744Z,100763.84
2022-08-05T23:02:39.878Z,100761.41
2022-08-05T23:05:18.410Z,100760.91
2022-08-05T23:07:49.581Z,100765.06
2022-08-05T23:10:20.712Z,100766.22
2022-08-05T23:12:55.136Z,100769.09
2022-08-05T23:15:26.982Z,100774.25
2022-08-05T23:18:00.970Z,100773.09
2022-08-05T23:20:37.336Z,100768.00
2022-08-05T23:23:08.380Z,100772.19
2022-08-05T23:25:53.470Z,100767.59
2022-08-05T23:28:27.761Z,100782.44
2022-08-05T23:31:15.756Z,100788.41
2022-08-05T23:34:05.690Z,100791.38
2022-08-05T23:36:38.487Z,100799.66
2022-08-05T23:39:08.569Z,100805.63
2022-08-05T23:41:41.082Z,100796.09
2022-08-05T23:44:17.553Z,100803.28
2022-08-05T23:46:48.578Z,100800.84
2022-08-05T23:49:23.673Z,100803.28
2022-08-05T23:52:12.888Z,100804.16
2022-08-05T23:54:45.974Z,100803.28
2022-08-05T23:57:14.442Z,100807.97
